createdAt,value
2022-11-03T00:08:03.985Z,4.92
2022-11-03T00:10:55.704Z,6.75
2022-11-03T00:13:47.525Z,6.33
2022-11-03T00:16:40.103Z,6.72
2022-11-03T00:19:31.983Z,5.08
2022-11-03T00:22:23.491Z,7.15
2022-11-03T00:25:14.933Z,5.62
2022-11-03T00:28:06.830Z,4.53
2022-11-03T00:33:38.232Z,5.75
2022-11-03T00:36:31.393Z,8.03
2022-11-03T00:39:22.864Z,6.87
2022-11-03T00:42:14.316Z,6.30
2022-11-03T00:45:06.572Z,5.33
2022-11-03T00:48:17.215Z,7.92
2022-11-03T00:51:11.555Z,5.08
2022-11-03T00:54:05.271Z,6.33
2022-11-03T00:56:56.586Z,5.95
2022-11-03T00:59:48.037Z,5.75
2022-11-03T01:05:41.472Z,6.05
2022-11-03T01:08:35.416Z,7.47
2022-11-03T01:14:05.515Z,5.87
2022-11-03T01:16:57.160Z,5.05
2022-11-03T01:19:48.960Z,4.95
2022-11-03T01:22:40.287Z,6.22
2022-11-03T01:28:12.262Z,4.47
2022-11-03T01:33:46.658Z,5.62
2022-11-03T01:36:38.169Z,4.70
2022-11-03T01:39:29.773Z,4.62
2022-11-03T01:42:21.484Z,4.53
2022-11-03T01:45:13.486Z,3.08
2022-11-03T01:48:05.357Z,4.15
2022-11-03T01:53:45.585Z,5.28
2022-11-03T01:56:39.459Z,4.58
2022-11-03T02:02:12.685Z,5.30
2022-11-03T02:05:07.293Z,5.40
2022-11-03T02:08:02.340Z,5.70
2022-11-03T02:13:35.234Z,7.97
2022-11-03T02:19:09.164Z,6.03
2022-11-03T02:22:03.304Z,5.95
2022-11-03T02:24:57.325Z,5.72
2022-11-03T02:27:48.772Z,6.12
2022-11-03T02:30:43.930Z,4.70
2022-11-03T02:33:47.046Z,5.85
2022-11-03T02:36:42.618Z,5.33
2022-11-03T02:39:37.350Z,6.47
2022-11-03T02:42:29.723Z,5.42
2022-11-03T02:45:23.995Z,4.72
2022-11-03T02:48:17.317Z,5.25
2022-11-03T02:53:51.375Z,4.62
2022-11-03T02:56:47.061Z,3.70
2022-11-03T02:59:41.743Z,5.42
2022-11-03T03:02:36.205Z,5.20
2022-11-03T03:08:12.961Z,4.30
2022-11-03T03:11:06.604Z,9.98
2022-11-03T03:16:44.478Z,5.42
2022-11-03T03:19:42.856Z,5.33
2022-11-03T03:22:37.469Z,4.70
2022-11-03T03:25:31.910Z,5.75
2022-11-03T03:28:26.622Z,5.42
2022-11-03T03:31:20.775Z,4.90
2022-11-03T03:34:33.887Z,3.75
2022-11-03T03:37:09.211Z,5.45
2022-11-03T03:40:04.077Z,5.65
2022-11-03T03:42:56.090Z,3.58
2022-11-03T03:48:37.337Z,5.75
2022-11-03T03:51:31.648Z,4.95
2022-11-03T03:54:23.301Z,6.12
2022-11-03T03:57:17.487Z,6.75
2022-11-03T04:00:16.196Z,4.65
2022-11-03T04:03:09.626Z,5.92
2022-11-03T04:06:01.004Z,6.28
2022-11-03T04:08:52.022Z,4.30
2022-11-03T04:12:01.299Z,5.83
2022-11-03T04:15:10.441Z,4.37
2022-11-03T04:18:19.401Z,5.85
2022-11-03T04:23:50.051Z,8.43
2022-11-03T04:26:41.937Z,6.17
2022-11-03T04:29:33.353Z,6.25
2022-11-03T04:32:24.700Z,5.08
2022-11-03T04:35:21.973Z,5.28
2022-11-03T04:40:58.202Z,4.67
2022-11-03T04:43:49.740Z,4.40
2022-11-03T04:46:41.526Z,4.97
2022-11-03T04:49:32.664Z,5.00
2022-11-03T04:52:24.938Z,4.17
2022-11-03T04:55:19.704Z,4.05
2022-11-03T05:00:49.621Z,7.40
2022-11-03T05:03:43.559Z,4.10
2022-11-03T05:06:34.992Z,4.78
2022-11-03T05:09:29.067Z,6.47
2022-11-03T05:12:21.350Z,4.03
2022-11-03T05:15:26.835Z,4.15
2022-11-03T05:18:22.031Z,3.98
2022-11-03T05:21:16.747Z,3.17
2022-11-03T05:24:13.078Z,4.60
2022-11-03T05:27:04.389Z,4.20
2022-11-03T05:30:00.578Z,3.98
2022-11-03T05:32:50.447Z,6.25
2022-11-03T05:38:31.387Z,5.87
2022-11-03T05:44:07.187Z,3.98
2022-11-03T05:47:01.928Z,5.58
2022-11-03T05:49:56.239Z,4.80
2022-11-03T05:52:49.183Z,3.67
2022-11-03T05:55:41.629Z,3.95
2022-11-03T05:58:35.906Z,4.97
2022-11-03T06:04:19.151Z,5.47
2022-11-03T06:10:03.546Z,5.85
2022-11-03T06:12:58.187Z,3.70
2022-11-03T06:18:39.731Z,7.20
2022-11-03T06:21:32.094Z,3.95
2022-11-03T06:24:26.405Z,5.87
2022-11-03T06:27:21.206Z,4.92
2022-11-03T06:33:00.756Z,7.95
2022-11-03T06:35:55.421Z,7.12
2022-11-03T06:38:49.091Z,6.33
2022-11-03T06:41:40.649Z,6.70
2022-11-03T06:44:31.944Z,4.35
2022-11-03T06:47:28.143Z,5.00
2022-11-03T06:53:17.255Z,3.72
2022-11-03T06:56:14.519Z,5.17
2022-11-03T06:59:07.102Z,4.87
2022-11-03T07:04:37.751Z,4.87
2022-11-03T07:10:15.235Z,4.78
2022-11-03T07:13:14.166Z,4.67
2022-11-03T07:18:47.742Z,4.75
2022-11-03T07:21:42.361Z,5.58
2022-11-03T07:24:36.216Z,4.30
2022-11-03T07:27:30.615Z,4.40
2022-11-03T07:30:24.500Z,6.22
2022-11-03T07:33:18.883Z,4.75
2022-11-03T07:36:15.921Z,5.20
2022-11-03T07:39:08.910Z,4.97
2022-11-03T07:44:41.730Z,4.83
2022-11-03T07:47:32.477Z,5.80
2022-11-03T07:50:23.632Z,5.60
2022-11-03T07:53:23.260Z,5.55
2022-11-03T07:56:21.005Z,9.83
2022-11-03T07:59:18.628Z,8.55
2022-11-03T08:02:17.332Z,4.33
2022-11-03T08:05:10.108Z,6.00
2022-11-03T08:08:01.107Z,5.92
2022-11-03T08:13:34.098Z,11.35
2022-11-03T08:16:25.260Z,5.85
2022-11-03T08:19:16.307Z,8.73
2022-11-03T08:24:47.966Z,3.98
2022-11-03T08:27:40.115Z,9.08
2022-11-03T08:33:13.061Z,7.12
2022-11-03T08:36:06.887Z,6.35
2022-11-03T08:38:58.158Z,4.83
2022-11-03T08:44:27.396Z,4.87
2022-11-03T08:47:18.676Z,4.85
2022-11-03T08:50:11.085Z,5.78
2022-11-03T08:55:41.677Z,7.10
2022-11-03T08:58:33.027Z,7.67
2022-11-03T09:01:24.656Z,6.75
2022-11-03T09:04:16.508Z,6.25
2022-11-03T09:07:08.133Z,7.80
2022-11-03T09:12:52.756Z,5.35
2022-11-03T09:15:44.662Z,5.08
2022-11-03T09:18:35.996Z,5.50
2022-11-03T09:21:27.218Z,4.45
2022-11-03T09:24:18.490Z,5.05
2022-11-03T09:27:09.485Z,3.58
2022-11-03T09:30:13.376Z,5.55
2022-11-03T09:32:53.641Z,5.95
2022-11-03T09:38:28.226Z,7.85
2022-11-03T09:41:28.171Z,6.85
2022-11-03T09:44:12.437Z,9.50
2022-11-03T09:47:04.952Z,10.40
2022-11-03T09:49:56.427Z,6.05
2022-11-03T09:55:27.545Z,7.47
2022-11-03T09:58:20.181Z,8.48
2022-11-03T10:01:13.000Z,7.25
2022-11-03T10:04:04.771Z,11.65
2022-11-03T10:06:57.167Z,10.75
2022-11-03T10:09:49.956Z,12.53
2022-11-03T10:12:41.321Z,7.40
2022-11-03T10:18:12.174Z,6.25
2022-11-03T10:21:06.574Z,5.90
2022-11-03T10:23:57.782Z,6.47
2022-11-03T10:29:29.660Z,4.47
2022-11-03T10:32:34.785Z,6.72
2022-11-03T10:38:30.914Z,6.95
2022-11-03T10:41:23.639Z,6.70
2022-11-03T10:44:21.108Z,6.22
2022-11-03T10:47:22.911Z,8.40
2022-11-03T10:50:26.369Z,7.10
2022-11-03T10:53:20.731Z,14.30
2022-11-03T10:58:51.402Z,6.22
2022-11-03T11:04:23.317Z,7.58
2022-11-03T11:07:28.036Z,5.65
2022-11-03T11:10:21.560Z,4.92
2022-11-03T11:13:31.409Z,8.40
2022-11-03T11:19:54.322Z,6.62
2022-11-03T11:22:45.547Z,7.15
2022-11-03T11:26:15.614Z,6.33
2022-11-03T11:29:48.923Z,8.85
2022-11-03T11:33:01.214Z,8.65
2022-11-03T11:36:27.638Z,7.05
2022-11-03T11:39:46.167Z,8.83
2022-11-03T11:42:38.912Z,5.92
2022-11-03T11:46:06.267Z,5.95
2022-11-03T11:49:18.271Z,9.08
2022-11-03T11:52:15.453Z,9.35
2022-11-03T11:55:04.012Z,8.50
2022-11-03T11:57:56.751Z,6.85
2022-11-03T12:03:40.743Z,7.80
2022-11-03T12:09:20.891Z,7.67
2022-11-03T12:12:11.881Z,6.60
2022-11-03T12:15:03.263Z,8.73
2022-11-03T12:17:54.400Z,7.25
2022-11-03T12:23:42.054Z,7.22
2022-11-03T12:29:31.464Z,7.55
2022-11-03T12:32:33.781Z,9.60
2022-11-03T12:35:16.150Z,11.05
2022-11-03T12:38:07.286Z,6.58
2022-11-03T12:43:36.732Z,8.75
2022-11-03T12:46:28.371Z,13.70
2022-11-03T12:49:19.457Z,7.20
2022-11-03T12:52:11.529Z,5.83
2022-11-03T12:55:03.326Z,6.78
2022-11-03T12:57:54.702Z,6.90
2022-11-03T13:00:52.146Z,5.60
2022-11-03T13:03:40.487Z,6.03
2022-11-03T13:06:31.593Z,4.58
2022-11-03T13:09:22.933Z,5.22
2022-11-03T13:12:35.302Z,6.37
2022-11-03T13:15:26.273Z,5.47
2022-11-03T13:18:17.494Z,8.40
2022-11-03T13:21:10.352Z,7.40
2022-11-03T13:24:01.543Z,8.48
2022-11-03T13:26:52.873Z,6.17
2022-11-03T13:29:44.165Z,5.45
2022-11-03T13:32:35.587Z,4.05
2022-11-03T13:35:27.116Z,3.77
2022-11-03T13:38:18.718Z,4.33
2022-11-03T13:41:10.152Z,6.37
2022-11-03T13:44:01.805Z,5.80
2022-11-03T13:46:54.212Z,3.85
2022-11-03T13:50:12.547Z,6.12
2022-11-03T13:52:38.387Z,4.53
2022-11-03T13:55:45.286Z,7.60
2022-11-03T14:01:17.652Z,5.17
2022-11-03T14:07:02.160Z,6.65
2022-11-03T14:09:53.736Z,4.90
2022-11-03T14:12:45.712Z,4.95
2022-11-03T14:15:37.110Z,4.97
2022-11-03T14:18:28.556Z,4.33
2022-11-03T14:21:20.151Z,5.28
2022-11-03T14:24:11.922Z,4.75
2022-11-03T14:27:03.281Z,4.05
2022-11-03T14:29:54.385Z,5.50
2022-11-03T14:32:45.812Z,6.15
2022-11-03T14:35:37.156Z,5.12
2022-11-03T14:38:28.446Z,5.92
2022-11-03T14:41:45.047Z,5.12
2022-11-03T14:44:37.168Z,8.53
2022-11-03T14:47:31.399Z,6.85
2022-11-03T14:50:34.122Z,7.58
2022-11-03T14:53:31.423Z,7.12
2022-11-03T14:56:27.336Z,6.58
2022-11-03T14:59:24.336Z,3.98
2022-11-03T15:02:20.107Z,5.80
2022-11-03T15:05:18.131Z,7.58
2022-11-03T15:08:12.856Z,7.17
2022-11-03T15:11:07.310Z,8.20
2022-11-03T15:14:04.089Z,6.90
2022-11-03T15:17:00.898Z,7.78
2022-11-03T15:19:54.545Z,11.30
2022-11-03T15:25:46.515Z,8.40
2022-11-03T15:28:43.428Z,10.55
2022-11-03T15:31:36.980Z,10.50
2022-11-03T15:34:34.272Z,10.45
2022-11-03T15:37:26.560Z,7.37
2022-11-03T15:40:19.579Z,6.60
2022-11-03T15:43:17.488Z,6.92
2022-11-03T15:46:11.385Z,8.50
2022-11-03T15:49:05.306Z,6.28
2022-11-03T15:52:12.291Z,7.10
2022-11-03T15:55:18.725Z,7.67
2022-11-03T15:58:12.381Z,6.45
2022-11-03T16:01:05.684Z,6.33
2022-11-03T16:03:59.919Z,8.20
2022-11-03T16:07:07.769Z,6.42
2022-11-03T16:09:56.888Z,7.40
2022-11-03T16:12:55.004Z,6.70
2022-11-03T16:15:52.783Z,6.85
2022-11-03T16:18:47.319Z,5.50
2022-11-03T16:21:41.714Z,6.72
2022-11-03T16:24:36.572Z,6.55
2022-11-03T16:27:31.375Z,5.72
2022-11-03T16:30:31.529Z,6.97
2022-11-03T16:33:27.983Z,8.65
2022-11-03T16:36:21.867Z,7.58
2022-11-03T16:39:29.222Z,5.72
2022-11-03T16:42:24.363Z,12.40
2022-11-03T16:45:21.861Z,8.15
2022-11-03T16:48:19.600Z,8.50
2022-11-03T16:51:13.257Z,8.38
2022-11-03T16:54:09.423Z,8.65
2022-11-03T16:57:02.427Z,6.65
2022-11-03T17:00:00.483Z,5.65
2022-11-03T17:02:55.350Z,6.65
2022-11-03T17:05:51.868Z,7.62
2022-11-03T17:08:53.830Z,7.72
2022-11-03T17:11:48.298Z,5.70
2022-11-03T17:14:45.203Z,7.65
2022-11-03T17:17:43.335Z,7.95
2022-11-03T17:20:39.954Z,7.25
2022-11-03T17:23:36.218Z,6.20
2022-11-03T17:26:39.001Z,7.22
2022-11-03T17:29:33.973Z,6.58
2022-11-03T17:32:30.861Z,6.10
2022-11-03T17:35:47.480Z,7.90
2022-11-03T17:38:49.877Z,6.53
2022-11-03T17:41:43.356Z,7.17
2022-11-03T17:44:45.546Z,8.30
2022-11-03T17:47:40.540Z,10.20
2022-11-03T17:50:46.643Z,7.35
2022-11-03T17:53:50.819Z,8.60
2022-11-03T17:56:46.309Z,7.85
2022-11-03T17:59:42.265Z,8.90
2022-11-03T18:02:38.535Z,9.68
2022-11-03T18:05:53.703Z,7.03
2022-11-03T18:09:15.085Z,8.75
2022-11-03T18:12:29.185Z,11.83
2022-11-03T18:15:23.118Z,7.87
2022-11-03T18:18:18.775Z,10.25
2022-11-03T18:21:13.071Z,9.00
2022-11-03T18:24:05.914Z,9.50
2022-11-03T18:26:57.162Z,12.47
2022-11-03T18:29:48.830Z,10.43
2022-11-03T18:32:41.407Z,10.45
2022-11-03T18:35:35.667Z,13.80
2022-11-03T18:38:27.507Z,8.85
2022-11-03T18:41:40.702Z,9.45
2022-11-03T18:44:32.718Z,10.60
2022-11-03T18:47:25.839Z,9.73
2022-11-03T18:50:19.302Z,8.83
2022-11-03T18:53:14.487Z,10.90
2022-11-03T18:56:08.895Z,9.38
2022-11-03T18:59:00.258Z,10.68
2022-11-03T19:01:51.589Z,9.98
2022-11-03T19:04:42.711Z,11.18
2022-11-03T19:07:37.467Z,10.48
2022-11-03T19:10:30.283Z,9.65
2022-11-03T19:13:25.165Z,8.95
2022-11-03T19:16:19.103Z,9.33
2022-11-03T19:19:13.866Z,6.72
2022-11-03T19:22:06.866Z,9.08
2022-11-03T19:24:58.206Z,7.30
2022-11-03T19:27:50.976Z,11.33
2022-11-03T19:30:42.265Z,9.03
2022-11-03T19:33:33.370Z,9.30
2022-11-03T19:36:24.565Z,7.40
2022-11-03T19:39:18.478Z,5.80
2022-11-03T19:42:33.269Z,6.45
2022-11-03T19:45:24.666Z,4.62
2022-11-03T19:48:24.111Z,6.25
2022-11-03T19:51:09.811Z,5.95
2022-11-03T19:54:01.586Z,5.80
2022-11-03T19:56:53.356Z,6.85
2022-11-03T19:59:44.956Z,6.45
2022-11-03T20:02:36.230Z,6.72
2022-11-03T20:05:27.280Z,8.15
2022-11-03T20:08:21.666Z,6.47
2022-11-03T20:11:14.079Z,7.60
2022-11-03T20:14:06.015Z,8.30
2022-11-03T20:16:59.943Z,11.33
2022-11-03T20:19:52.833Z,9.43
2022-11-03T20:22:46.010Z,6.45
2022-11-03T20:25:38.690Z,7.15
2022-11-03T20:28:32.488Z,6.95
2022-11-03T20:31:23.727Z,7.95
2022-11-03T20:34:16.516Z,9.43
2022-11-03T20:37:13.079Z,7.42
2022-11-03T20:40:05.436Z,7.45
2022-11-03T20:42:59.060Z,6.95
2022-11-03T20:45:50.198Z,7.17
2022-11-03T20:48:41.303Z,8.85
2022-11-03T20:51:37.890Z,5.28
2022-11-03T20:54:29.154Z,3.75
2022-11-03T20:57:20.212Z,5.33
2022-11-03T21:00:16.774Z,3.05
2022-11-03T21:03:31.428Z,4.05
2022-11-03T21:06:12.404Z,3.02
2022-11-03T21:09:04.056Z,6.37
2022-11-03T21:11:55.323Z,5.17
2022-11-03T21:15:05.301Z,3.25
2022-11-03T21:18:14.451Z,3.27
2022-11-03T21:21:10.906Z,3.67
2022-11-03T21:23:59.638Z,3.83
2022-11-03T21:26:50.662Z,3.87
2022-11-03T21:29:58.819Z,3.47
2022-11-03T21:32:34.946Z,5.20
2022-11-03T21:35:26.195Z,4.75
2022-11-03T21:38:18.821Z,6.22
2022-11-03T21:41:28.445Z,3.80
2022-11-03T21:44:19.780Z,4.08
2022-11-03T21:47:12.431Z,5.70
2022-11-03T21:50:03.334Z,7.33
2022-11-03T21:52:54.626Z,2.27
2022-11-03T21:55:47.259Z,4.62
2022-11-03T21:58:38.819Z,2.25
2022-11-03T22:01:29.874Z,1.17
2022-11-03T22:04:22.649Z,1.57
2022-11-03T22:07:14.469Z,2.72
2022-11-03T22:10:06.807Z,2.10
2022-11-03T22:16:00.066Z,2.98
2022-11-03T22:18:52.018Z,1.77
2022-11-03T22:22:02.437Z,0.90
2022-11-03T22:25:11.883Z,1.17
2022-11-03T22:28:03.569Z,3.75
2022-11-03T22:33:36.237Z,1.00
2022-11-03T22:36:28.591Z,0.40
2022-11-03T22:39:37.775Z,0.33
2022-11-03T22:42:46.615Z,1.62
2022-11-03T22:45:54.734Z,0.65
2022-11-03T22:54:15.676Z,0.78
2022-11-03T22:57:07.899Z,0.98
2022-11-03T22:59:59.017Z,4.03
2022-11-03T23:02:52.031Z,1.57
2022-11-03T23:05:44.508Z,0.95
2022-11-03T23:08:37.452Z,2.10
2022-11-03T23:11:32.865Z,1.02
2022-11-03T23:14:26.212Z,1.90
2022-11-03T23:17:17.577Z,2.05
2022-11-03T23:20:28.758Z,1.05
2022-11-03T23:23:38.790Z,1.62
2022-11-03T23:26:30.187Z,1.55
2022-11-03T23:29:21.564Z,0.53
2022-11-03T23:32:12.839Z,0.68
2022-11-03T23:35:04.978Z,0.60
2022-11-03T23:37:56.178Z,1.45
2022-11-03T23:40:47.347Z,0.42
2022-11-03T23:43:38.982Z,3.45
2022-11-03T23:49:09.669Z,1.20
2022-11-03T23:52:00.958Z,0.30
2022-11-03T23:54:52.596Z,0.50
2022-11-03T23:58:01.463Z,0.40
